createdAt,value
2023-05-18T00:01:56.532Z,99920.84
2023-05-18T00:04:23.066Z,99912.91
2023-05-18T00:06:50.726Z,99915.81
2023-05-18T00:09:17.222Z,99910.06
2023-05-18T00:11:43.725Z,99904.66
2023-05-18T00:14:10.339Z,99902.84
2023-05-18T00:16:37.076Z,99906.44
2023-05-18T00:19:04.113Z,99898.66
2023-05-18T00:21:30.833Z,99898.22
2023-05-18T00:23:57.382Z,99897.28
2023-05-18T00:26:24.159Z,99894.91
2023-05-18T00:28:50.939Z,99897.97
2023-05-18T00:31:18.347Z,99892.81
2023-05-18T00:33:45.300Z,99902.16
2023-05-18T00:36:11.939Z,99906.50
2023-05-18T00:38:38.444Z,99907.19
2023-05-18T00:41:05.256Z,99901.41
2023-05-18T00:43:32.173Z,99906.28
2023-05-18T00:45:59.151Z,99903.22
2023-05-18T00:48:25.698Z,99900.56
2023-05-18T00:50:52.405Z,99899.56
2023-05-18T00:53:19.135Z,99898.03
2023-05-18T00:55:46.020Z,99891.91
2023-05-18T00:58:12.541Z,99899.97
2023-05-18T01:00:39.174Z,99893.44
2023-05-18T01:03:05.786Z,99890.22
2023-05-18T01:05:34.774Z,99895.47
2023-05-18T01:08:01.773Z,99892.88
2023-05-18T01:10:28.603Z,99889.41
2023-05-18T01:13:05.607Z,99890.84
2023-05-18T01:15:35.660Z,99879.28
2023-05-18T01:18:11.679Z,99882.19
2023-05-18T01:20:56.947Z,99885.63
2023-05-18T01:23:53.616Z,99884.97
2023-05-18T01:26:28.812Z,99878.78
2023-05-18T01:28:59.854Z,99875.88
2023-05-18T01:31:27.887Z,99872.44
2023-05-18T01:33:54.618Z,99874.16
2023-05-18T01:36:21.500Z,99876.69
2023-05-18T01:38:48.842Z,99878.25
2023-05-18T01:41:22.763Z,99879.94
2023-05-18T01:44:08.572Z,99887.88
2023-05-18T01:46:40.171Z,99875.50
2023-05-18T01:49:32.892Z,99875.38
2023-05-18T01:52:05.171Z,99874.75
2023-05-18T01:54:33.773Z,99866.50
2023-05-18T01:57:01.335Z,99851.50
2023-05-18T01:59:28.191Z,99830.09
2023-05-18T02:01:59.999Z,99831.75
2023-05-18T02:04:28.540Z,99836.94
2023-05-18T02:06:55.737Z,99833.31
2023-05-18T02:09:22.856Z,99821.34
2023-05-18T02:11:49.721Z,99824.25
2023-05-18T02:14:16.386Z,99829.78
2023-05-18T02:16:43.181Z,99825.31
2023-05-18T02:19:10.036Z,99823.91
2023-05-18T02:21:36.931Z,99821.44
2023-05-18T02:24:03.591Z,99813.94
2023-05-18T02:26:30.525Z,99805.53
2023-05-18T02:28:57.308Z,99800.97
2023-05-18T02:31:23.859Z,99788.66
2023-05-18T02:33:50.465Z,99802.38
2023-05-18T02:36:16.963Z,99796.00
2023-05-18T02:38:44.460Z,99803.72
2023-05-18T02:41:11.259Z,99796.38
2023-05-18T02:43:37.876Z,99801.41
2023-05-18T02:46:04.965Z,99790.84
2023-05-18T02:48:31.880Z,99796.69
2023-05-18T02:50:58.844Z,99794.69
2023-05-18T02:53:25.628Z,99784.94
2023-05-18T02:55:56.045Z,99785.31
2023-05-18T02:58:23.057Z,99780.63
2023-05-18T03:00:49.901Z,99779.09
2023-05-18T03:03:16.869Z,99782.38
2023-05-18T03:05:43.911Z,99776.88
2023-05-18T03:08:10.374Z,99778.34
2023-05-18T03:10:38.217Z,99771.75
2023-05-18T03:13:04.695Z,99769.28
2023-05-18T03:15:31.559Z,99751.03
2023-05-18T03:17:58.481Z,99752.56
2023-05-18T03:20:26.440Z,99751.22
2023-05-18T03:22:53.082Z,99746.19
2023-05-18T03:25:19.857Z,99745.84
2023-05-18T03:27:46.381Z,99744.75
2023-05-18T03:30:13.310Z,99749.31
2023-05-18T03:32:40.340Z,99759.28
2023-05-18T03:35:07.101Z,99764.25
2023-05-18T03:37:33.998Z,99764.25
2023-05-18T03:40:09.628Z,99772.75
2023-05-18T03:42:36.342Z,99772.19
2023-05-18T03:45:03.065Z,99768.56
2023-05-18T03:47:29.932Z,99771.94
2023-05-18T03:49:56.865Z,99769.03
2023-05-18T03:52:23.389Z,99766.50
2023-05-18T03:54:50.476Z,99777.28
2023-05-18T03:57:17.601Z,99779.84
2023-05-18T03:59:45.111Z,99781.50
2023-05-18T04:02:12.285Z,99774.72
2023-05-18T04:04:39.936Z,99780.56
2023-05-18T04:07:06.585Z,99779.84
2023-05-18T04:09:34.938Z,99786.69
2023-05-18T04:12:01.467Z,99784.88
2023-05-18T04:14:28.317Z,99791.72
2023-05-18T04:16:55.430Z,99797.91
2023-05-18T04:19:22.427Z,99790.31
2023-05-18T04:21:49.497Z,99798.56
2023-05-18T04:24:16.035Z,99797.00
2023-05-18T04:26:42.626Z,99810.03
2023-05-18T04:29:09.197Z,99818.16
2023-05-18T04:31:36.519Z,99831.44
2023-05-18T04:34:03.447Z,99846.78
2023-05-18T04:36:30.066Z,99862.75
2023-05-18T04:38:57.491Z,99870.31
2023-05-18T04:41:25.089Z,99875.13
2023-05-18T04:43:52.692Z,99877.34
2023-05-18T04:46:19.577Z,99883.38
2023-05-18T04:48:46.155Z,99885.97
2023-05-18T04:51:12.620Z,99901.47
2023-05-18T04:53:39.147Z,99905.56
2023-05-18T04:56:06.153Z,99893.94
2023-05-18T04:58:34.666Z,99824.06
2023-05-18T05:01:01.517Z,99725.84
2023-05-18T05:03:28.529Z,99654.16
2023-05-18T05:05:55.165Z,99581.94
2023-05-18T05:08:21.893Z,99545.78
2023-05-18T05:10:48.428Z,99546.66
2023-05-18T05:13:15.504Z,99580.59
2023-05-18T05:15:42.146Z,99607.44
2023-05-18T05:18:08.778Z,99630.91
2023-05-18T05:20:35.567Z,99539.22
2023-05-18T05:23:02.172Z,99513.22
2023-05-18T05:25:29.161Z,99495.22
2023-05-18T05:27:56.172Z,99468.00
2023-05-18T05:30:22.882Z,99453.75
2023-05-18T05:32:49.783Z,99415.16
2023-05-18T05:35:16.312Z,99418.97
2023-05-18T05:37:42.841Z,99404.66
2023-05-18T05:40:10.015Z,99398.69
2023-05-18T05:42:36.741Z,99413.91
2023-05-18T05:45:03.945Z,99409.59
2023-05-18T05:47:30.792Z,99407.56
2023-05-18T05:49:57.560Z,99394.13
2023-05-18T05:52:24.196Z,99393.22
2023-05-18T05:54:50.714Z,99391.75
2023-05-18T05:57:18.750Z,99384.00
2023-05-18T05:59:45.323Z,99380.34
2023-05-18T06:02:12.569Z,99385.53
2023-05-18T06:04:39.232Z,99386.44
2023-05-18T06:07:05.974Z,99381.59
2023-05-18T06:09:32.955Z,99382.94
2023-05-18T06:11:59.663Z,99377.13
2023-05-18T06:14:26.389Z,99367.81
2023-05-18T06:16:53.262Z,99373.59
2023-05-18T06:19:21.945Z,99369.50
2023-05-18T06:21:49.335Z,99367.25
2023-05-18T06:24:15.930Z,99369.47
2023-05-18T06:26:42.920Z,99370.66
2023-05-18T06:29:09.810Z,99363.72
2023-05-18T06:31:36.990Z,99369.56
2023-05-18T06:34:03.648Z,99367.03
2023-05-18T06:36:30.508Z,99362.22
2023-05-18T06:38:57.160Z,99362.22
2023-05-18T06:41:23.985Z,99364.53
2023-05-18T06:43:53.391Z,99360.41
2023-05-18T06:46:24.310Z,99357.13
2023-05-18T06:48:51.749Z,99363.97
2023-05-18T06:51:19.473Z,99361.06
2023-05-18T06:53:46.234Z,99359.94
2023-05-18T06:56:13.153Z,99360.41
2023-05-18T06:58:41.362Z,99352.94
2023-05-18T07:01:08.067Z,99352.78
2023-05-18T07:03:35.132Z,99359.69
2023-05-18T07:06:04.019Z,99358.97
2023-05-18T07:08:32.996Z,99354.19
2023-05-18T07:11:00.216Z,99357.19
2023-05-18T07:13:32.605Z,99354.22
2023-05-18T07:16:04.308Z,99356.00
2023-05-18T07:18:31.141Z,99355.72
2023-05-18T07:20:58.486Z,99351.81
2023-05-18T07:23:25.416Z,99350.22
2023-05-18T07:25:57.465Z,99355.38
2023-05-18T07:28:24.050Z,99353.28
2023-05-18T07:30:50.966Z,99358.47
2023-05-18T07:33:19.035Z,99355.09
2023-05-18T07:35:45.595Z,99354.06
2023-05-18T07:38:12.824Z,99350.41
2023-05-18T07:40:40.267Z,99356.34
2023-05-18T07:43:06.840Z,99352.22
2023-05-18T07:45:33.792Z,99341.72
2023-05-18T07:48:01.030Z,99345.50
2023-05-18T07:50:27.672Z,99338.81
2023-05-18T07:52:54.474Z,99333.97
2023-05-18T07:55:23.303Z,99335.63
2023-05-18T07:57:50.096Z,99332.94
2023-05-18T08:00:17.437Z,99327.97
2023-05-18T08:02:44.753Z,99342.41
2023-05-18T08:05:11.950Z,99335.44
2023-05-18T08:07:38.841Z,99331.66
2023-05-18T08:10:06.681Z,99338.88
2023-05-18T08:12:33.272Z,99325.78
2023-05-18T08:15:00.192Z,99330.16
2023-05-18T08:17:26.875Z,99327.28
2023-05-18T08:19:54.324Z,99320.25
2023-05-18T08:22:26.242Z,99317.09
2023-05-18T08:24:52.834Z,99319.88
2023-05-18T08:27:19.525Z,99319.03
2023-05-18T08:29:46.132Z,99316.91
2023-05-18T08:32:13.423Z,99312.75
2023-05-18T08:34:41.205Z,99316.81
2023-05-18T08:37:08.064Z,99307.56
2023-05-18T08:39:34.696Z,99310.66
2023-05-18T08:42:16.497Z,99306.19
2023-05-18T08:45:08.434Z,99312.47
2023-05-18T08:47:37.815Z,99313.69
2023-05-18T08:50:09.165Z,99309.03
2023-05-18T08:52:37.460Z,99302.72
2023-05-18T08:55:08.472Z,99312.59
2023-05-18T08:57:39.176Z,99316.22
2023-05-18T09:00:06.868Z,99309.81
2023-05-18T09:02:33.757Z,99312.19
2023-05-18T09:05:01.374Z,99307.63
2023-05-18T09:07:29.644Z,99300.81
2023-05-18T09:09:57.730Z,99306.47
2023-05-18T09:12:27.119Z,99308.22
2023-05-18T09:14:54.632Z,99306.72
2023-05-18T09:17:23.003Z,99307.44
2023-05-18T09:19:50.988Z,99302.91
2023-05-18T09:22:17.873Z,99306.28
2023-05-18T09:24:47.511Z,99297.81
2023-05-18T09:27:14.312Z,99298.44
2023-05-18T09:29:58.497Z,99300.38
2023-05-18T09:32:27.375Z,99302.25
2023-05-18T09:34:54.124Z,99304.09
2023-05-18T09:37:21.952Z,99306.63
2023-05-18T09:40:02.587Z,99307.59
2023-05-18T09:42:35.830Z,99314.00
2023-05-18T09:45:03.269Z,99297.41
2023-05-18T09:47:30.110Z,99298.94
2023-05-18T09:49:57.672Z,99299.06
2023-05-18T09:52:24.211Z,99307.53
2023-05-18T09:55:02.708Z,99302.16
2023-05-18T09:57:30.368Z,99293.56
2023-05-18T10:00:04.495Z,99293.47
2023-05-18T10:02:31.279Z,99286.34
2023-05-18T10:04:59.258Z,99289.03
2023-05-18T10:07:26.167Z,99286.38
2023-05-18T10:10:02.327Z,99287.63
2023-05-18T10:12:29.407Z,99292.28
2023-05-18T10:14:56.232Z,99277.03
2023-05-18T10:17:24.683Z,99282.97
2023-05-18T10:19:56.947Z,99289.28
2023-05-18T10:22:26.144Z,99280.91
2023-05-18T10:24:52.906Z,99274.78
2023-05-18T10:27:27.189Z,99279.03
2023-05-18T10:30:00.305Z,99280.38
2023-05-18T10:32:29.690Z,99270.44
2023-05-18T10:34:57.137Z,99264.22
2023-05-18T10:37:26.782Z,99270.38
2023-05-18T10:39:56.014Z,99266.34
2023-05-18T10:42:25.696Z,99271.84
2023-05-18T10:44:57.414Z,99277.41
2023-05-18T10:47:25.446Z,99263.94
2023-05-18T10:49:52.638Z,99260.56
2023-05-18T10:52:20.777Z,99277.34
2023-05-18T10:54:48.149Z,99276.13
2023-05-18T10:57:18.183Z,99277.59
2023-05-18T10:59:48.392Z,99271.09
2023-05-18T11:02:18.230Z,99265.22
2023-05-18T11:04:46.924Z,99258.69
2023-05-18T11:07:14.111Z,99254.47
2023-05-18T11:09:45.034Z,99253.38
2023-05-18T11:12:17.045Z,99262.44
2023-05-18T11:14:52.281Z,99255.94
2023-05-18T11:17:20.585Z,99252.78
2023-05-18T11:20:05.733Z,99237.84
2023-05-18T11:23:02.072Z,99251.50
2023-05-18T11:25:29.101Z,99256.56
2023-05-18T11:28:00.202Z,99247.47
2023-05-18T11:30:33.935Z,99242.22
2023-05-18T11:33:12.339Z,99241.25
2023-05-18T11:36:02.344Z,99254.22
2023-05-18T11:38:46.857Z,99252.91
2023-05-18T11:41:35.563Z,99245.25
2023-05-18T11:44:11.386Z,99238.91
2023-05-18T11:46:52.197Z,99241.00
2023-05-18T11:49:22.379Z,99244.09
2023-05-18T11:52:06.988Z,99237.19
2023-05-18T11:54:44.722Z,99222.34
2023-05-18T11:57:11.643Z,99228.72
2023-05-18T11:59:43.442Z,99228.38
2023-05-18T12:02:12.870Z,99235.97
2023-05-18T12:04:49.609Z,99236.66
2023-05-18T12:07:18.456Z,99238.22
2023-05-18T12:09:45.785Z,99229.31
2023-05-18T12:12:13.712Z,99229.16
2023-05-18T12:14:41.906Z,99235.75
2023-05-18T12:17:10.436Z,99232.56
2023-05-18T12:19:47.935Z,99219.91
2023-05-18T12:22:15.622Z,99224.59
2023-05-18T12:24:43.824Z,99228.44
2023-05-18T12:27:12.186Z,99216.56
2023-05-18T12:29:41.094Z,99218.84
2023-05-18T12:32:09.986Z,99215.75
2023-05-18T12:34:37.887Z,99221.41
2023-05-18T12:37:05.980Z,99220.31
2023-05-18T12:39:32.819Z,99218.16
2023-05-18T12:42:13.756Z,99225.63
2023-05-18T12:44:41.837Z,99211.25
2023-05-18T12:47:08.451Z,99199.69
2023-05-18T12:49:39.791Z,99211.25
2023-05-18T12:52:14.594Z,99213.03
2023-05-18T12:54:51.254Z,99210.38
2023-05-18T12:57:17.998Z,99212.56
2023-05-18T12:59:48.682Z,99209.00
2023-05-18T13:02:27.434Z,99203.06
2023-05-18T13:05:08.585Z,99196.47
2023-05-18T13:07:42.425Z,99193.38
2023-05-18T13:10:10.753Z,99196.75
2023-05-18T13:12:45.571Z,99203.47
2023-05-18T13:15:14.241Z,99207.28
2023-05-18T13:17:49.434Z,99199.81
2023-05-18T13:20:17.188Z,99200.94
2023-05-18T13:22:44.402Z,99199.81
2023-05-18T13:25:11.621Z,99210.19
2023-05-18T13:27:38.702Z,99204.91
2023-05-18T13:30:06.254Z,99203.97
2023-05-18T13:32:34.874Z,99201.91
2023-05-18T13:35:01.647Z,99192.94
2023-05-18T13:37:28.496Z,99197.47
2023-05-18T13:39:54.964Z,99185.19
2023-05-18T13:42:22.077Z,99179.38
2023-05-18T13:44:50.603Z,99190.84
2023-05-18T13:47:17.795Z,99190.94
2023-05-18T13:49:44.347Z,99183.38
2023-05-18T13:52:11.024Z,99180.56
2023-05-18T13:54:37.614Z,99177.47
2023-05-18T13:57:04.405Z,99176.16
2023-05-18T13:59:30.931Z,99169.25
2023-05-18T14:01:57.668Z,99172.47
2023-05-18T14:04:24.452Z,99165.16
2023-05-18T14:06:50.970Z,99164.75
2023-05-18T14:09:17.585Z,99156.00
2023-05-18T14:11:44.391Z,99164.78
2023-05-18T14:14:10.947Z,99172.53
2023-05-18T14:16:37.609Z,99170.22
2023-05-18T14:19:04.258Z,99171.03
2023-05-18T14:21:30.903Z,99165.56
2023-05-18T14:23:57.620Z,99157.63
2023-05-18T14:26:24.222Z,99153.16
2023-05-18T14:28:51.048Z,99156.50
2023-05-18T14:31:17.951Z,99159.00
2023-05-18T14:33:44.697Z,99157.50
2023-05-18T14:36:11.576Z,99158.78
2023-05-18T14:38:38.538Z,99149.41
2023-05-18T14:41:04.994Z,99152.88
2023-05-18T14:43:33.641Z,99151.84
2023-05-18T14:46:08.073Z,99155.94
2023-05-18T14:48:35.632Z,99159.84
2023-05-18T14:51:02.246Z,99160.09
2023-05-18T14:53:28.968Z,99161.59
2023-05-18T14:55:55.701Z,99162.63
2023-05-18T14:58:22.215Z,99161.72
2023-05-18T15:00:49.001Z,99168.84
2023-05-18T15:03:15.662Z,99162.03
2023-05-18T15:05:42.247Z,99166.28
2023-05-18T15:08:09.152Z,99162.19
2023-05-18T15:10:35.743Z,99169.00
2023-05-18T15:13:02.410Z,99164.66
2023-05-18T15:15:29.283Z,99158.75
2023-05-18T15:17:56.042Z,99164.16
2023-05-18T15:20:22.895Z,99156.88
2023-05-18T15:22:49.737Z,99157.97
2023-05-18T15:25:16.891Z,99161.25
2023-05-18T15:27:43.521Z,99164.44
2023-05-18T15:30:10.922Z,99159.00
2023-05-18T15:32:38.814Z,99159.44
2023-05-18T15:35:06.536Z,99164.16
2023-05-18T15:37:33.561Z,99160.50
2023-05-18T15:40:02.980Z,99159.72
2023-05-18T15:42:29.803Z,99162.22
2023-05-18T15:44:56.652Z,99164.16
2023-05-18T15:47:23.178Z,99160.66
2023-05-18T15:49:49.901Z,99161.31
2023-05-18T15:52:16.575Z,99156.19
2023-05-18T15:54:43.153Z,99158.50
2023-05-18T15:57:09.964Z,99159.19
2023-05-18T15:59:36.695Z,99157.19
2023-05-18T16:02:03.364Z,99150.75
2023-05-18T16:04:30.377Z,99157.22
2023-05-18T16:06:57.594Z,99152.06
2023-05-18T16:09:24.516Z,99146.31
2023-05-18T16:11:53.837Z,99147.34
2023-05-18T16:14:20.707Z,99141.13
2023-05-18T16:16:47.488Z,99148.97
2023-05-18T16:19:14.220Z,99144.25
2023-05-18T16:21:40.854Z,99147.59
2023-05-18T16:24:10.381Z,99140.91
2023-05-18T16:26:39.885Z,99146.13
2023-05-18T16:29:07.292Z,99139.31
2023-05-18T16:31:34.385Z,99144.63
2023-05-18T16:34:01.026Z,99142.91
2023-05-18T16:36:27.636Z,99143.44
2023-05-18T16:38:54.588Z,99140.19
2023-05-18T16:41:21.507Z,99138.19
2023-05-18T16:43:49.758Z,99142.91
2023-05-18T16:46:17.860Z,99147.94
2023-05-18T16:48:46.042Z,99144.38
2023-05-18T16:51:13.124Z,99140.63
2023-05-18T16:53:40.081Z,99142.41
2023-05-18T16:56:07.342Z,99149.63
2023-05-18T16:58:33.938Z,99150.25
2023-05-18T17:01:09.845Z,99154.00
2023-05-18T17:03:42.799Z,99154.03
2023-05-18T17:06:09.624Z,99152.06
2023-05-18T17:08:36.318Z,99154.44
2023-05-18T17:11:03.565Z,99151.00
2023-05-18T17:13:30.768Z,99151.63
2023-05-18T17:15:57.510Z,99153.09
2023-05-18T17:18:24.095Z,99146.41
2023-05-18T17:20:50.589Z,99157.69
2023-05-18T17:23:17.694Z,99149.91
2023-05-18T17:25:45.431Z,99153.59
2023-05-18T17:28:11.918Z,99154.94
2023-05-18T17:30:38.857Z,99154.09
2023-05-18T17:33:05.596Z,99153.16
2023-05-18T17:35:32.351Z,99144.91
2023-05-18T17:37:59.055Z,99153.44
2023-05-18T17:40:26.085Z,99152.53
2023-05-18T17:42:52.998Z,99154.31
2023-05-18T17:45:19.810Z,99168.19
2023-05-18T17:47:46.443Z,99167.06
2023-05-18T17:50:13.122Z,99162.09
2023-05-18T17:52:39.899Z,99167.59
2023-05-18T17:55:07.356Z,99173.84
2023-05-18T17:57:34.571Z,99167.44
2023-05-18T18:00:01.869Z,99167.28
2023-05-18T18:02:28.535Z,99163.97
2023-05-18T18:04:55.158Z,99170.03
2023-05-18T18:07:21.832Z,99165.31
2023-05-18T18:09:48.386Z,99162.41
2023-05-18T18:12:15.180Z,99160.31
2023-05-18T18:14:41.707Z,99154.94
2023-05-18T18:17:08.651Z,99165.34
2023-05-18T18:19:35.722Z,99160.75
2023-05-18T18:22:02.393Z,99163.44
2023-05-18T18:24:29.284Z,99160.59
2023-05-18T18:26:56.906Z,99158.13
2023-05-18T18:29:23.371Z,99164.59
2023-05-18T18:31:50.776Z,99158.78
2023-05-18T18:34:24.712Z,99159.28
2023-05-18T18:36:52.200Z,99175.47
2023-05-18T18:39:18.728Z,99174.38
2023-05-18T18:41:46.463Z,99177.84
2023-05-18T18:44:13.060Z,99185.19
2023-05-18T18:46:40.485Z,99176.69
2023-05-18T18:49:07.134Z,99180.75
2023-05-18T18:51:35.582Z,99179.75
2023-05-18T18:54:02.216Z,99179.97
2023-05-18T18:56:28.710Z,99190.94
2023-05-18T18:58:56.355Z,99184.97
2023-05-18T19:01:23.000Z,99186.03
2023-05-18T19:03:50.448Z,99194.38
2023-05-18T19:06:17.234Z,99193.16
2023-05-18T19:08:44.268Z,99183.25
2023-05-18T19:11:11.281Z,99193.75
2023-05-18T19:13:38.064Z,99195.34
2023-05-18T19:16:04.924Z,99203.91
2023-05-18T19:18:33.276Z,99197.94
2023-05-18T19:21:00.003Z,99208.13
2023-05-18T19:23:27.184Z,99202.09
2023-05-18T19:25:53.658Z,99204.38
2023-05-18T19:28:20.590Z,99197.16
2023-05-18T19:30:48.094Z,99206.91
2023-05-18T19:33:16.357Z,99207.31
2023-05-18T19:35:43.049Z,99210.84
2023-05-18T19:38:10.561Z,99214.81
2023-05-18T19:40:44.722Z,99208.22
2023-05-18T19:43:12.402Z,99211.72
2023-05-18T19:45:39.457Z,99218.34
2023-05-18T19:48:06.723Z,99220.88
2023-05-18T19:50:33.321Z,99223.16
2023-05-18T19:59:00.930Z,99232.66
2023-05-18T20:01:29.636Z,99235.97
2023-05-18T20:03:56.750Z,99230.63
2023-05-18T20:06:23.883Z,99234.56
2023-05-18T20:08:51.175Z,99239.72
2023-05-18T20:11:17.802Z,99235.00
2023-05-18T20:13:44.632Z,99237.47
2023-05-18T20:16:11.506Z,99241.63
2023-05-18T20:18:42.720Z,99239.34
2023-05-18T20:21:09.567Z,99243.47
2023-05-18T20:23:38.687Z,99243.28
2023-05-18T20:26:06.995Z,99244.31
2023-05-18T20:28:37.436Z,99245.75
2023-05-18T20:31:04.247Z,99249.28
2023-05-18T20:33:31.113Z,99249.28
2023-05-18T20:35:57.628Z,99245.34
2023-05-18T20:38:25.995Z,99255.03
2023-05-18T20:40:53.123Z,99257.53
2023-05-18T20:43:20.678Z,99260.00
2023-05-18T20:45:47.604Z,99254.88
2023-05-18T20:48:14.642Z,99259.41
2023-05-18T20:50:42.384Z,99255.47
2023-05-18T20:53:08.923Z,99256.91
2023-05-18T20:55:35.538Z,99251.75
2023-05-18T20:58:02.414Z,99250.28
2023-05-18T21:00:29.530Z,99254.66
2023-05-18T21:02:56.532Z,99256.06
2023-05-18T21:05:23.152Z,99262.03
2023-05-18T21:07:49.989Z,99256.88
2023-05-18T21:10:17.269Z,99260.38
2023-05-18T21:12:45.548Z,99262.03
2023-05-18T21:15:12.402Z,99266.97
2023-05-18T21:17:39.317Z,99266.56
2023-05-18T21:20:07.008Z,99264.06
2023-05-18T21:22:33.732Z,99264.06
2023-05-18T21:25:00.675Z,99269.44
2023-05-18T21:27:27.921Z,99262.44
2023-05-18T21:29:54.868Z,99266.97
2023-05-18T21:32:21.631Z,99261.19
2023-05-18T21:34:48.586Z,99257.66
2023-05-18T21:37:15.908Z,99269.41
2023-05-18T21:39:42.628Z,99262.19
2023-05-18T21:42:09.520Z,99259.75
2023-05-18T21:44:36.253Z,99251.69
2023-05-18T21:47:02.949Z,99256.44
2023-05-18T21:49:29.434Z,99240.13
2023-05-18T21:51:56.594Z,99247.38
2023-05-18T21:54:23.184Z,99248.59
2023-05-18T21:56:49.792Z,99256.00
2023-05-18T21:59:17.220Z,99257.47
2023-05-18T22:01:43.741Z,99254.97
2023-05-18T22:04:10.380Z,99254.34
2023-05-18T22:06:37.242Z,99271.69
2023-05-18T22:09:05.053Z,99307.13
2023-05-18T22:11:31.469Z,99329.22
2023-05-18T22:13:58.081Z,99332.06
2023-05-18T22:16:24.621Z,99325.28
2023-05-18T22:18:51.257Z,99330.00
2023-05-18T22:21:17.818Z,99343.41
2023-05-18T22:23:44.518Z,99348.16
2023-05-18T22:26:11.509Z,99333.09
2023-05-18T22:28:40.047Z,99313.06
2023-05-18T22:31:06.926Z,99327.91
2023-05-18T22:33:33.736Z,99362.34
2023-05-18T22:36:00.347Z,99369.16
2023-05-18T22:38:26.948Z,99372.41
2023-05-18T22:40:53.655Z,99381.06
2023-05-18T22:43:21.685Z,99369.69
2023-05-18T22:45:48.729Z,99378.38
2023-05-18T22:48:15.697Z,99353.00
2023-05-18T22:50:44.416Z,99337.50
2023-05-18T22:53:11.298Z,99297.53
2023-05-18T22:55:37.920Z,99290.31
2023-05-18T22:58:05.122Z,99264.97
2023-05-18T23:00:31.995Z,99277.97
2023-05-18T23:02:58.892Z,99266.00
2023-05-18T23:05:26.907Z,99269.28
2023-05-18T23:07:53.722Z,99253.44
2023-05-18T23:10:20.645Z,99248.50
2023-05-18T23:12:47.396Z,99249.31
2023-05-18T23:15:14.334Z,99243.38
2023-05-18T23:17:41.048Z,99239.22
2023-05-18T23:20:09.743Z,99238.41
2023-05-18T23:22:36.761Z,99245.81
2023-05-18T23:25:04.467Z,99240.03
2023-05-18T23:27:31.292Z,99241.69
2023-05-18T23:29:57.993Z,99233.06
2023-05-18T23:32:25.115Z,99239.22
2023-05-18T23:34:52.298Z,99243.13
2023-05-18T23:37:19.519Z,99241.25
2023-05-18T23:39:48.484Z,99245.78
2023-05-18T23:42:15.359Z,99243.94
2023-05-18T23:44:42.139Z,99239.19
2023-05-18T23:47:09.544Z,99236.13
2023-05-18T23:49:36.255Z,99230.53
2023-05-18T23:52:02.884Z,99229.91
2023-05-18T23:54:30.277Z,99222.72
2023-05-18T23:56:58.017Z,99218.75
2023-05-18T23:59:25.305Z,99223.31
